sensor_id;sensor_type;location;lat;lon;timestamp;P1;P2;P0
57884;PMS5003;43703;51.060;-0.086;2024-02-15T00:00:04;13;12;
57884;PMS5003;43703;51.060;-0.086;2024-02-15T00:02:30;19;16;
57884;PMS5003;43703;51.060;-0.086;2024-02-15T00:04:55;16;15;
57884;PMS5003;43703;51.060;-0.086;2024-02-15T00:07:21;22;17;
57884;PMS5003;43703;51.060;-0.086;2024-02-15T00:09:46;17;17;
57884;PMS5003;43703;51.060;-0.086;2024-02-15T00:12:12;20;19;
57884;PMS5003;43703;51.060;-0.086;2024-02-15T00:14:38;23;23;
57884;PMS5003;43703;51.060;-0.086;2024-02-15T00:17:03;26;26;
57884;PMS5003;43703;51.060;-0.086;2024-02-15T00:19:28;20;19;
57884;PMS5003;43703;51.060;-0.086;2024-02-15T00:21:54;21;21;
57884;PMS5003;43703;51.060;-0.086;2024-02-15T00:24:19;17;17;
57884;PMS5003;43703;51.060;-0.086;2024-02-15T00:26:44;20;19;
57884;PMS5003;43703;51.060;-0.086;2024-02-15T00:29:10;16;16;
57884;PMS5003;43703;51.060;-0.086;2024-02-15T00:31:36;13;13;
57884;PMS5003;43703;51.060;-0.086;2024-02-15T00:34:03;14;13;
57884;PMS5003;43703;51.060;-0.086;2024-02-15T00:36:28;12;11;
57884;PMS5003;43703;51.060;-0.086;2024-02-15T00:38:53;12;11;
57884;PMS5003;43703;51.060;-0.086;2024-02-15T00:41:24;12;12;
57884;PMS5003;43703;51.060;-0.086;2024-02-15T00:43:45;14;13;
57884;PMS5003;43703;51.060;-0.086;2024-02-15T00:46:11;13;13;
57884;PMS5003;43703;51.060;-0.086;2024-02-15T00:48:36;11;11;
57884;PMS5003;43703;51.060;-0.086;2024-02-15T00:51:03;10;10;
57884;PMS5003;43703;51.060;-0.086;2024-02-15T00:53:28;11;11;
57884;PMS5003;43703;51.060;-0.086;2024-02-15T00:55:55;9;9;
57884;PMS5003;43703;51.060;-0.086;2024-02-15T00:58:20;12;10;
57884;PMS5003;43703;51.060;-0.086;2024-02-15T01:00:46;12;12;
57884;PMS5003;43703;51.060;-0.086;2024-02-15T01:03:11;9;9;
57884;PMS5003;43703;51.060;-0.086;2024-02-15T01:05:37;11;10;
57884;PMS5003;43703;51.060;-0.086;2024-02-15T01:08:04;9;9;
57884;PMS5003;43703;51.060;-0.086;2024-02-15T01:10:29;9;8;
57884;PMS5003;43703;51.060;-0.086;2024-02-15T01:12:54;13;13;
57884;PMS5003;43703;51.060;-0.086;2024-02-15T01:15:20;9;9;
57884;PMS5003;43703;51.060;-0.086;2024-02-15T01:17:46;9;9;
57884;PMS5003;43703;51.060;-0.086;2024-02-15T01:20:12;10;10;
57884;PMS5003;43703;51.060;-0.086;2024-02-15T01:22:38;11;10;
57884;PMS5003;43703;51.060;-0.086;2024-02-15T01:25:03;13;13;
57884;PMS5003;43703;51.060;-0.086;2024-02-15T01:27:29;17;16;
57884;PMS5003;43703;51.060;-0.086;2024-02-15T01:29:54;18;18;
57884;PMS5003;43703;51.060;-0.086;2024-02-15T01:32:20;28;23;
57884;PMS5003;43703;51.060;-0.086;2024-02-15T01:34:45;26;25;
57884;PMS5003;43703;51.060;-0.086;2024-02-15T01:37:10;18;18;
57884;PMS5003;43703;51.060;-0.086;2024-02-15T01:39:36;19;18;
57884;PMS5003;43703;51.060;-0.086;2024-02-15T01:42:01;16;15;
57884;PMS5003;43703;51.060;-0.086;2024-02-15T01:44:27;13;13;
57884;PMS5003;43703;51.060;-0.086;2024-02-15T01:46:54;13;13;
57884;PMS5003;43703;51.060;-0.086;2024-02-15T01:49:19;8;8;
57884;PMS5003;43703;51.060;-0.086;2024-02-15T01:51:44;13;13;
57884;PMS5003;43703;51.060;-0.086;2024-02-15T01:54:10;16;16;
57884;PMS5003;43703;51.060;-0.086;2024-02-15T01:56:36;14;14;
57884;PMS5003;43703;51.060;-0.086;2024-02-15T01:59:02;14;13;
57884;PMS5003;43703;51.060;-0.086;2024-02-15T02:01:27;5;5;
57884;PMS5003;43703;51.060;-0.086;2024-02-15T02:03:58;7;7;
57884;PMS5003;43703;51.060;-0.086;2024-02-15T02:06:19;5;5;
57884;PMS5003;43703;51.060;-0.086;2024-02-15T02:08:45;6;6;
57884;PMS5003;43703;51.060;-0.086;2024-02-15T02:11:11;2;2;
57884;PMS5003;43703;51.060;-0.086;2024-02-15T02:13:36;3;3;
57884;PMS5003;43703;51.060;-0.086;2024-02-15T02:16:02;2;2;
57884;PMS5003;43703;51.060;-0.086;2024-02-15T02:18:28;2;2;
57884;PMS5003;43703;51.060;-0.086;2024-02-15T02:20:54;2;2;
57884;PMS5003;43703;51.060;-0.086;2024-02-15T02:23:20;6;5;
57884;PMS5003;43703;51.060;-0.086;2024-02-15T02:25:46;7;6;
57884;PMS5003;43703;51.060;-0.086;2024-02-15T02:28:11;4;4;
57884;PMS5003;43703;51.060;-0.086;2024-02-15T02:30:37;7;7;
57884;PMS5003;43703;51.060;-0.086;2024-02-15T02:33:03;10;8;
57884;PMS5003;43703;51.060;-0.086;2024-02-15T02:35:29;11;9;
57884;PMS5003;43703;51.060;-0.086;2024-02-15T02:37:58;9;9;
57884;PMS5003;43703;51.060;-0.086;2024-02-15T02:40:20;5;5;
57884;PMS5003;43703;51.060;-0.086;2024-02-15T02:42:47;7;7;
57884;PMS5003;43703;51.060;-0.086;2024-02-15T02:45:12;9;9;
57884;PMS5003;43703;51.060;-0.086;2024-02-15T02:47:43;7;6;
57884;PMS5003;43703;51.060;-0.086;2024-02-15T02:50:04;2;2;
57884;PMS5003;43703;51.060;-0.086;2024-02-15T02:52:29;2;2;
57884;PMS5003;43703;51.060;-0.086;2024-02-15T02:54:55;4;4;
57884;PMS5003;43703;51.060;-0.086;2024-02-15T02:57:21;5;3;
57884;PMS5003;43703;51.060;-0.086;2024-02-15T02:59:47;5;3;
57884;PMS5003;43703;51.060;-0.086;2024-02-15T03:02:13;5;3;
57884;PMS5003;43703;51.060;-0.086;2024-02-15T03:04:38;5;3;
57884;PMS5003;43703;51.060;-0.086;2024-02-15T03:07:04;6;6;
57884;PMS5003;43703;51.060;-0.086;2024-02-15T03:09:30;8;8;
57884;PMS5003;43703;51.060;-0.086;2024-02-15T03:11:56;5;5;
57884;PMS5003;43703;51.060;-0.086;2024-02-15T03:14:21;4;4;
57884;PMS5003;43703;51.060;-0.086;2024-02-15T03:16:47;5;3;
57884;PMS5003;43703;51.060;-0.086;2024-02-15T03:19:13;6;6;
57884;PMS5003;43703;51.060;-0.086;2024-02-15T03:21:39;10;7;
57884;PMS5003;43703;51.060;-0.086;2024-02-15T03:24:05;6;5;
57884;PMS5003;43703;51.060;-0.086;2024-02-15T03:26:31;6;5;
57884;PMS5003;43703;51.060;-0.086;2024-02-15T03:28:56;6;6;
57884;PMS5003;43703;51.060;-0.086;2024-02-15T03:31:22;8;4;
57884;PMS5003;43703;51.060;-0.086;2024-02-15T03:33:47;7;5;
57884;PMS5003;43703;51.060;-0.086;2024-02-15T03:36:13;5;5;
57884;PMS5003;43703;51.060;-0.086;2024-02-15T03:38:39;6;6;
57884;PMS5003;43703;51.060;-0.086;2024-02-15T03:41:05;7;7;
57884;PMS5003;43703;51.060;-0.086;2024-02-15T03:43:30;6;6;
57884;PMS5003;43703;51.060;-0.086;2024-02-15T03:45:56;8;8;
57884;PMS5003;43703;51.060;-0.086;2024-02-15T03:48:22;5;5;
57884;PMS5003;43703;51.060;-0.086;2024-02-15T03:50:48;7;7;
57884;PMS5003;43703;51.060;-0.086;2024-02-15T03:53:13;7;7;
57884;PMS5003;43703;51.060;-0.086;2024-02-15T03:55:39;13;11;
57884;PMS5003;43703;51.060;-0.086;2024-02-15T03:58:04;6;6;
57884;PMS5003;43703;51.060;-0.086;2024-02-15T04:00:30;12;9;
57884;PMS5003;43703;51.060;-0.086;2024-02-15T04:02:56;10;10;
57884;PMS5003;43703;51.060;-0.086;2024-02-15T04:05:21;13;12;
57884;PMS5003;43703;51.060;-0.086;2024-02-15T04:07:47;17;14;
57884;PMS5003;43703;51.060;-0.086;2024-02-15T04:10:13;17;16;
57884;PMS5003;43703;51.060;-0.086;2024-02-15T04:12:38;12;12;
57884;PMS5003;43703;51.060;-0.086;2024-02-15T04:15:04;11;11;
57884;PMS5003;43703;51.060;-0.086;2024-02-15T04:17:30;12;11;
57884;PMS5003;43703;51.060;-0.086;2024-02-15T04:19:55;17;17;
57884;PMS5003;43703;51.060;-0.086;2024-02-15T04:22:22;16;15;
57884;PMS5003;43703;51.060;-0.086;2024-02-15T04:24:47;20;20;
57884;PMS5003;43703;51.060;-0.086;2024-02-15T04:27:12;19;15;
57884;PMS5003;43703;51.060;-0.086;2024-02-15T04:29:38;14;14;
57884;PMS5003;43703;51.060;-0.086;2024-02-15T04:32:04;19;17;
57884;PMS5003;43703;51.060;-0.086;2024-02-15T04:34:31;13;13;
57884;PMS5003;43703;51.060;-0.086;2024-02-15T04:36:55;22;19;
57884;PMS5003;43703;51.060;-0.086;2024-02-15T04:39:21;18;18;
57884;PMS5003;43703;51.060;-0.086;2024-02-15T04:41:46;22;20;
57884;PMS5003;43703;51.060;-0.086;2024-02-15T04:44:12;22;22;
57884;PMS5003;43703;51.060;-0.086;2024-02-15T04:46:37;22;19;
57884;PMS5003;43703;51.060;-0.086;2024-02-15T04:49:02;17;17;
57884;PMS5003;43703;51.060;-0.086;2024-02-15T04:51:28;17;17;
57884;PMS5003;43703;51.060;-0.086;2024-02-15T04:53:53;19;19;
57884;PMS5003;43703;51.060;-0.086;2024-02-15T04:56:22;19;19;
57884;PMS5003;43703;51.060;-0.086;2024-02-15T04:58:45;19;19;
57884;PMS5003;43703;51.060;-0.086;2024-02-15T05:01:12;18;18;
57884;PMS5003;43703;51.060;-0.086;2024-02-15T05:03:36;16;16;
57884;PMS5003;43703;51.060;-0.086;2024-02-15T05:06:01;20;19;
57884;PMS5003;43703;51.060;-0.086;2024-02-15T05:08:28;17;16;
57884;PMS5003;43703;51.060;-0.086;2024-02-15T05:10:52;15;15;
57884;PMS5003;43703;51.060;-0.086;2024-02-15T05:13:18;16;16;
57884;PMS5003;43703;51.060;-0.086;2024-02-15T05:15:44;13;13;
57884;PMS5003;43703;51.060;-0.086;2024-02-15T05:18:09;14;14;
57884;PMS5003;43703;51.060;-0.086;2024-02-15T05:20:35;20;17;
57884;PMS5003;43703;51.060;-0.086;2024-02-15T05:23:01;19;14;
57884;PMS5003;43703;51.060;-0.086;2024-02-15T05:25:26;13;13;
57884;PMS5003;43703;51.060;-0.086;2024-02-15T05:27:56;15;14;
57884;PMS5003;43703;51.060;-0.086;2024-02-15T05:30:18;15;13;
57884;PMS5003;43703;51.060;-0.086;2024-02-15T05:32:43;14;14;
57884;PMS5003;43703;51.060;-0.086;2024-02-15T05:35:09;14;14;
57884;PMS5003;43703;51.060;-0.086;2024-02-15T05:37:34;17;15;
57884;PMS5003;43703;51.060;-0.086;2024-02-15T05:40:00;17;15;
57884;PMS5003;43703;51.060;-0.086;2024-02-15T05:42:26;15;15;
57884;PMS5003;43703;51.060;-0.086;2024-02-15T05:44:52;19;16;
57884;PMS5003;43703;51.060;-0.086;2024-02-15T05:47:17;19;17;
57884;PMS5003;43703;51.060;-0.086;2024-02-15T05:49:43;14;13;
57884;PMS5003;43703;51.060;-0.086;2024-02-15T05:52:08;15;14;
57884;PMS5003;43703;51.060;-0.086;2024-02-15T05:54:34;9;9;
57884;PMS5003;43703;51.060;-0.086;2024-02-15T05:57:00;11;11;
57884;PMS5003;43703;51.060;-0.086;2024-02-15T05:59:26;8;8;
57884;PMS5003;43703;51.060;-0.086;2024-02-15T06:01:51;8;8;
57884;PMS5003;43703;51.060;-0.086;2024-02-15T06:04:18;7;7;
57884;PMS5003;43703;51.060;-0.086;2024-02-15T06:06:48;7;7;
57884;PMS5003;43703;51.060;-0.086;2024-02-15T06:09:09;8;5;
57884;PMS5003;43703;51.060;-0.086;2024-02-15T06:11:34;5;5;
57884;PMS5003;43703;51.060;-0.086;2024-02-15T06:14:00;9;7;
57884;PMS5003;43703;51.060;-0.086;2024-02-15T06:16:26;8;8;
57884;PMS5003;43703;51.060;-0.086;2024-02-15T06:18:52;7;7;
57884;PMS5003;43703;51.060;-0.086;2024-02-15T06:21:18;9;7;
57884;PMS5003;43703;51.060;-0.086;2024-02-15T06:23:44;7;6;
57884;PMS5003;43703;51.060;-0.086;2024-02-15T06:26:09;7;7;
57884;PMS5003;43703;51.060;-0.086;2024-02-15T06:28:35;12;9;
57884;PMS5003;43703;51.060;-0.086;2024-02-15T06:31:01;9;8;
57884;PMS5003;43703;51.060;-0.086;2024-02-15T06:33:27;9;8;
57884;PMS5003;43703;51.060;-0.086;2024-02-15T06:35:52;8;8;
57884;PMS5003;43703;51.060;-0.086;2024-02-15T06:38:18;7;7;
57884;PMS5003;43703;51.060;-0.086;2024-02-15T06:40:44;5;5;
57884;PMS5003;43703;51.060;-0.086;2024-02-15T06:43:09;10;10;
57884;PMS5003;43703;51.060;-0.086;2024-02-15T06:45:34;9;9;
57884;PMS5003;43703;51.060;-0.086;2024-02-15T06:48:00;9;9;
57884;PMS5003;43703;51.060;-0.086;2024-02-15T06:50:31;10;10;
57884;PMS5003;43703;51.060;-0.086;2024-02-15T06:52:51;10;10;
57884;PMS5003;43703;51.060;-0.086;2024-02-15T06:55:17;7;7;
57884;PMS5003;43703;51.060;-0.086;2024-02-15T06:57:43;10;10;
57884;PMS5003;43703;51.060;-0.086;2024-02-15T07:00:09;9;9;
57884;PMS5003;43703;51.060;-0.086;2024-02-15T07:02:35;9;8;
57884;PMS5003;43703;51.060;-0.086;2024-02-15T07:05:00;10;9;
57884;PMS5003;43703;51.060;-0.086;2024-02-15T07:07:26;10;10;
57884;PMS5003;43703;51.060;-0.086;2024-02-15T07:09:52;12;12;
57884;PMS5003;43703;51.060;-0.086;2024-02-15T07:12:18;11;11;
57884;PMS5003;43703;51.060;-0.086;2024-02-15T07:14:48;17;15;
57884;PMS5003;43703;51.060;-0.086;2024-02-15T07:17:09;15;13;
57884;PMS5003;43703;51.060;-0.086;2024-02-15T07:19:35;13;11;
57884;PMS5003;43703;51.060;-0.086;2024-02-15T07:22:01;13;13;
57884;PMS5003;43703;51.060;-0.086;2024-02-15T07:24:27;19;16;
57884;PMS5003;43703;51.060;-0.086;2024-02-15T07:26:58;18;18;
57884;PMS5003;43703;51.060;-0.086;2024-02-15T07:29:18;15;15;
57884;PMS5003;43703;51.060;-0.086;2024-02-15T07:31:44;11;11;
57884;PMS5003;43703;51.060;-0.086;2024-02-15T07:34:10;15;14;
57884;PMS5003;43703;51.060;-0.086;2024-02-15T07:36:43;13;13;
57884;PMS5003;43703;51.060;-0.086;2024-02-15T07:39:01;9;9;
57884;PMS5003;43703;51.060;-0.086;2024-02-15T07:41:27;14;13;
57884;PMS5003;43703;51.060;-0.086;2024-02-15T07:43:53;11;11;
57884;PMS5003;43703;51.060;-0.086;2024-02-15T07:46:18;10;10;
57884;PMS5003;43703;51.060;-0.086;2024-02-15T07:48:44;9;9;
57884;PMS5003;43703;51.060;-0.086;2024-02-15T07:51:10;11;10;
57884;PMS5003;43703;51.060;-0.086;2024-02-15T07:53:36;11;10;
57884;PMS5003;43703;51.060;-0.086;2024-02-15T07:56:02;11;10;
57884;PMS5003;43703;51.060;-0.086;2024-02-15T07:58:27;8;8;
57884;PMS5003;43703;51.060;-0.086;2024-02-15T08:00:53;9;9;
57884;PMS5003;43703;51.060;-0.086;2024-02-15T08:03:19;8;8;
57884;PMS5003;43703;51.060;-0.086;2024-02-15T08:05:45;15;12;
57884;PMS5003;43703;51.060;-0.086;2024-02-15T08:08:09;10;8;
57884;PMS5003;43703;51.060;-0.086;2024-02-15T08:10:40;8;8;
57884;PMS5003;43703;51.060;-0.086;2024-02-15T08:13:01;8;8;
57884;PMS5003;43703;51.060;-0.086;2024-02-15T08:15:27;10;10;
57884;PMS5003;43703;51.060;-0.086;2024-02-15T08:17:53;8;8;
57884;PMS5003;43703;51.060;-0.086;2024-02-15T08:20:18;9;9;
57884;PMS5003;43703;51.060;-0.086;2024-02-15T08:22:44;10;10;
57884;PMS5003;43703;51.060;-0.086;2024-02-15T08:25:10;8;8;
57884;PMS5003;43703;51.060;-0.086;2024-02-15T08:27:38;10;8;
57884;PMS5003;43703;51.060;-0.086;2024-02-15T08:30:01;10;10;
57884;PMS5003;43703;51.060;-0.086;2024-02-15T08:32:27;11;9;
57884;PMS5003;43703;51.060;-0.086;2024-02-15T08:34:53;10;10;
57884;PMS5003;43703;51.060;-0.086;2024-02-15T08:37:18;8;8;
57884;PMS5003;43703;51.060;-0.086;2024-02-15T08:39:44;10;10;
57884;PMS5003;43703;51.060;-0.086;2024-02-15T08:42:10;12;10;
57884;PMS5003;43703;51.060;-0.086;2024-02-15T08:44:36;10;10;
57884;PMS5003;43703;51.060;-0.086;2024-02-15T08:47:01;14;13;
57884;PMS5003;43703;51.060;-0.086;2024-02-15T08:49:26;7;6;
57884;PMS5003;43703;51.060;-0.086;2024-02-15T08:51:52;9;9;
57884;PMS5003;43703;51.060;-0.086;2024-02-15T08:54:18;11;8;
57884;PMS5003;43703;51.060;-0.086;2024-02-15T08:56:43;12;12;
57884;PMS5003;43703;51.060;-0.086;2024-02-15T08:59:09;10;10;
57884;PMS5003;43703;51.060;-0.086;2024-02-15T09:01:35;12;9;
57884;PMS5003;43703;51.060;-0.086;2024-02-15T09:04:01;12;10;
57884;PMS5003;43703;51.060;-0.086;2024-02-15T09:06:27;9;9;
57884;PMS5003;43703;51.060;-0.086;2024-02-15T09:08:52;9;8;
57884;PMS5003;43703;51.060;-0.086;2024-02-15T09:11:18;11;11;
57884;PMS5003;43703;51.060;-0.086;2024-02-15T09:13:44;9;8;
57884;PMS5003;43703;51.060;-0.086;2024-02-15T09:16:10;12;12;
57884;PMS5003;43703;51.060;-0.086;2024-02-15T09:18:36;11;10;
57884;PMS5003;43703;51.060;-0.086;2024-02-15T09:21:01;9;9;
57884;PMS5003;43703;51.060;-0.086;2024-02-15T09:23:27;10;10;
57884;PMS5003;43703;51.060;-0.086;2024-02-15T09:25:52;12;10;
57884;PMS5003;43703;51.060;-0.086;2024-02-15T09:28:18;11;11;
57884;PMS5003;43703;51.060;-0.086;2024-02-15T09:30:44;10;8;
57884;PMS5003;43703;51.060;-0.086;2024-02-15T09:33:10;11;11;
57884;PMS5003;43703;51.060;-0.086;2024-02-15T09:35:35;10;9;
57884;PMS5003;43703;51.060;-0.086;2024-02-15T09:38:02;14;13;
57884;PMS5003;43703;51.060;-0.086;2024-02-15T09:40:26;9;9;
57884;PMS5003;43703;51.060;-0.086;2024-02-15T09:42:52;9;9;
57884;PMS5003;43703;51.060;-0.086;2024-02-15T09:45:18;9;9;
57884;PMS5003;43703;51.060;-0.086;2024-02-15T09:47:45;10;9;
57884;PMS5003;43703;51.060;-0.086;2024-02-15T09:50:10;7;7;
57884;PMS5003;43703;51.060;-0.086;2024-02-15T09:52:34;12;11;
57884;PMS5003;43703;51.060;-0.086;2024-02-15T09:55:00;7;7;
57884;PMS5003;43703;51.060;-0.086;2024-02-15T09:57:26;8;8;
57884;PMS5003;43703;51.060;-0.086;2024-02-15T09:59:57;10;9;
57884;PMS5003;43703;51.060;-0.086;2024-02-15T10:02:17;9;8;
57884;PMS5003;43703;51.060;-0.086;2024-02-15T10:04:42;11;8;
57884;PMS5003;43703;51.060;-0.086;2024-02-15T10:07:09;8;6;
57884;PMS5003;43703;51.060;-0.086;2024-02-15T10:09:34;6;6;
57884;PMS5003;43703;51.060;-0.086;2024-02-15T10:11:59;10;9;
57884;PMS5003;43703;51.060;-0.086;2024-02-15T10:14:25;10;8;
57884;PMS5003;43703;51.060;-0.086;2024-02-15T10:16:50;8;8;
57884;PMS5003;43703;51.060;-0.086;2024-02-15T10:19:16;5;5;
57884;PMS5003;43703;51.060;-0.086;2024-02-15T10:21:42;12;10;
57884;PMS5003;43703;51.060;-0.086;2024-02-15T10:24:08;6;6;
57884;PMS5003;43703;51.060;-0.086;2024-02-15T10:26:34;6;6;
57884;PMS5003;43703;51.060;-0.086;2024-02-15T10:31:26;8;6;
57884;PMS5003;43703;51.060;-0.086;2024-02-15T10:33:51;7;7;
57884;PMS5003;43703;51.060;-0.086;2024-02-15T10:36:17;8;8;
57884;PMS5003;43703;51.060;-0.086;2024-02-15T10:38:43;10;7;
57884;PMS5003;43703;51.060;-0.086;2024-02-15T10:41:08;8;8;
57884;PMS5003;43703;51.060;-0.086;2024-02-15T10:43:34;7;7;
57884;PMS5003;43703;51.060;-0.086;2024-02-15T10:45:59;10;9;
57884;PMS5003;43703;51.060;-0.086;2024-02-15T10:48:25;5;5;
57884;PMS5003;43703;51.060;-0.086;2024-02-15T10:50:51;6;6;
57884;PMS5003;43703;51.060;-0.086;2024-02-15T10:53:22;8;8;
57884;PMS5003;43703;51.060;-0.086;2024-02-15T10:55:44;5;5;
57884;PMS5003;43703;51.060;-0.086;2024-02-15T10:58:08;6;6;
57884;PMS5003;43703;51.060;-0.086;2024-02-15T11:00:34;8;8;
57884;PMS5003;43703;51.060;-0.086;2024-02-15T11:03:01;7;7;
57884;PMS5003;43703;51.060;-0.086;2024-02-15T11:05:26;9;9;
57884;PMS5003;43703;51.060;-0.086;2024-02-15T11:07:51;9;8;
57884;PMS5003;43703;51.060;-0.086;2024-02-15T11:10:17;8;7;
57884;PMS5003;43703;51.060;-0.086;2024-02-15T11:12:43;9;8;
57884;PMS5003;43703;51.060;-0.086;2024-02-15T11:15:09;8;8;
57884;PMS5003;43703;51.060;-0.086;2024-02-15T11:20:00;7;7;
57884;PMS5003;43703;51.060;-0.086;2024-02-15T11:22:26;8;8;
57884;PMS5003;43703;51.060;-0.086;2024-02-15T11:24:54;10;9;
57884;PMS5003;43703;51.060;-0.086;2024-02-15T11:32:09;9;8;
57884;PMS5003;43703;51.060;-0.086;2024-02-15T11:37:01;11;8;
57884;PMS5003;43703;51.060;-0.086;2024-02-15T11:44:18;9;9;
57884;PMS5003;43703;51.060;-0.086;2024-02-15T11:46:44;6;6;
57884;PMS5003;43703;51.060;-0.086;2024-02-15T11:49:14;10;8;
57884;PMS5003;43703;51.060;-0.086;2024-02-15T11:51:35;7;7;
57884;PMS5003;43703;51.060;-0.086;2024-02-15T11:54:02;8;7;
57884;PMS5003;43703;51.060;-0.086;2024-02-15T11:56:27;8;8;
57884;PMS5003;43703;51.060;-0.086;2024-02-15T12:01:19;10;10;
57884;PMS5003;43703;51.060;-0.086;2024-02-15T12:03:52;7;7;
57884;PMS5003;43703;51.060;-0.086;2024-02-15T12:06:10;7;7;
57884;PMS5003;43703;51.060;-0.086;2024-02-15T12:08:39;7;6;
57884;PMS5003;43703;51.060;-0.086;2024-02-15T12:11:01;6;6;
57884;PMS5003;43703;51.060;-0.086;2024-02-15T12:13:29;5;5;
57884;PMS5003;43703;51.060;-0.086;2024-02-15T12:15:57;6;6;
57884;PMS5003;43703;51.060;-0.086;2024-02-15T12:18:19;6;5;
57884;PMS5003;43703;51.060;-0.086;2024-02-15T12:20:44;7;7;
57884;PMS5003;43703;51.060;-0.086;2024-02-15T12:23:10;6;6;
57884;PMS5003;43703;51.060;-0.086;2024-02-15T12:25:36;5;5;
57884;PMS5003;43703;51.060;-0.086;2024-02-15T12:28:02;4;4;
57884;PMS5003;43703;51.060;-0.086;2024-02-15T12:30:34;5;5;
57884;PMS5003;43703;51.060;-0.086;2024-02-15T12:32:53;7;7;
57884;PMS5003;43703;51.060;-0.086;2024-02-15T12:35:19;4;4;
57884;PMS5003;43703;51.060;-0.086;2024-02-15T12:37:45;4;4;
57884;PMS5003;43703;51.060;-0.086;2024-02-15T12:40:11;6;4;
57884;PMS5003;43703;51.060;-0.086;2024-02-15T12:45:02;5;5;
57884;PMS5003;43703;51.060;-0.086;2024-02-15T12:47:28;3;3;
57884;PMS5003;43703;51.060;-0.086;2024-02-15T12:49:54;4;4;
57884;PMS5003;43703;51.060;-0.086;2024-02-15T12:54:45;3;3;
57884;PMS5003;43703;51.060;-0.086;2024-02-15T12:57:11;4;4;
57884;PMS5003;43703;51.060;-0.086;2024-02-15T12:59:37;3;3;
57884;PMS5003;43703;51.060;-0.086;2024-02-15T13:02:03;5;4;
57884;PMS5003;43703;51.060;-0.086;2024-02-15T13:04:28;3;3;
57884;PMS5003;43703;51.060;-0.086;2024-02-15T13:06:56;4;4;
57884;PMS5003;43703;51.060;-0.086;2024-02-15T13:09:20;4;4;
57884;PMS5003;43703;51.060;-0.086;2024-02-15T13:11:45;4;4;
57884;PMS5003;43703;51.060;-0.086;2024-02-15T13:14:11;5;5;
57884;PMS5003;43703;51.060;-0.086;2024-02-15T13:16:37;3;3;
57884;PMS5003;43703;51.060;-0.086;2024-02-15T13:19:03;4;3;
57884;PMS5003;43703;51.060;-0.086;2024-02-15T13:21:29;2;2;
57884;PMS5003;43703;51.060;-0.086;2024-02-15T13:23:54;4;4;
57884;PMS5003;43703;51.060;-0.086;2024-02-15T13:26:20;3;3;
57884;PMS5003;43703;51.060;-0.086;2024-02-15T13:28:47;3;3;
57884;PMS5003;43703;51.060;-0.086;2024-02-15T13:31:12;4;4;
57884;PMS5003;43703;51.060;-0.086;2024-02-15T13:33:38;5;4;
57884;PMS5003;43703;51.060;-0.086;2024-02-15T13:36:04;4;3;
57884;PMS5003;43703;51.060;-0.086;2024-02-15T13:38:29;3;3;
57884;PMS5003;43703;51.060;-0.086;2024-02-15T13:40:54;5;5;
57884;PMS5003;43703;51.060;-0.086;2024-02-15T13:43:20;5;5;
57884;PMS5003;43703;51.060;-0.086;2024-02-15T13:45:45;3;2;
57884;PMS5003;43703;51.060;-0.086;2024-02-15T13:48:11;3;3;
57884;PMS5003;43703;51.060;-0.086;2024-02-15T13:50:37;2;2;
57884;PMS5003;43703;51.060;-0.086;2024-02-15T13:53:03;4;4;
57884;PMS5003;43703;51.060;-0.086;2024-02-15T13:55:28;4;4;
57884;PMS5003;43703;51.060;-0.086;2024-02-15T13:57:55;4;4;
57884;PMS5003;43703;51.060;-0.086;2024-02-15T14:00:20;4;2;
57884;PMS5003;43703;51.060;-0.086;2024-02-15T14:02:46;4;4;
57884;PMS5003;43703;51.060;-0.086;2024-02-15T14:05:17;2;2;
57884;PMS5003;43703;51.060;-0.086;2024-02-15T14:07:37;6;4;
57884;PMS5003;43703;51.060;-0.086;2024-02-15T14:10:04;4;4;
57884;PMS5003;43703;51.060;-0.086;2024-02-15T14:12:30;6;4;
57884;PMS5003;43703;51.060;-0.086;2024-02-15T14:14:55;6;6;
57884;PMS5003;43703;51.060;-0.086;2024-02-15T14:17:20;4;4;
57884;PMS5003;43703;51.060;-0.086;2024-02-15T14:19:46;5;5;
57884;PMS5003;43703;51.060;-0.086;2024-02-15T14:22:12;6;4;
57884;PMS5003;43703;51.060;-0.086;2024-02-15T14:24:38;5;5;
57884;PMS5003;43703;51.060;-0.086;2024-02-15T14:27:06;4;4;
57884;PMS5003;43703;51.060;-0.086;2024-02-15T14:29:29;4;4;
57884;PMS5003;43703;51.060;-0.086;2024-02-15T14:31:55;7;4;
57884;PMS5003;43703;51.060;-0.086;2024-02-15T14:34:21;6;6;
57884;PMS5003;43703;51.060;-0.086;2024-02-15T14:36:47;5;5;
57884;PMS5003;43703;51.060;-0.086;2024-02-15T14:39:13;6;6;
57884;PMS5003;43703;51.060;-0.086;2024-02-15T14:41:38;4;4;
57884;PMS5003;43703;51.060;-0.086;2024-02-15T14:44:04;3;3;
57884;PMS5003;43703;51.060;-0.086;2024-02-15T14:46:34;6;6;
57884;PMS5003;43703;51.060;-0.086;2024-02-15T14:48:55;9;9;
57884;PMS5003;43703;51.060;-0.086;2024-02-15T14:51:20;5;5;
57884;PMS5003;43703;51.060;-0.086;2024-02-15T14:53:46;6;4;
57884;PMS5003;43703;51.060;-0.086;2024-02-15T14:56:12;6;3;
57884;PMS5003;43703;51.060;-0.086;2024-02-15T14:58:38;6;6;
57884;PMS5003;43703;51.060;-0.086;2024-02-15T15:01:03;6;6;
57884;PMS5003;43703;51.060;-0.086;2024-02-15T15:03:30;9;6;
57884;PMS5003;43703;51.060;-0.086;2024-02-15T15:05:55;7;7;
57884;PMS5003;43703;51.060;-0.086;2024-02-15T15:08:23;7;6;
57884;PMS5003;43703;51.060;-0.086;2024-02-15T15:10:47;7;7;
57884;PMS5003;43703;51.060;-0.086;2024-02-15T15:13:12;6;6;
57884;PMS5003;43703;51.060;-0.086;2024-02-15T15:15:38;14;13;
57884;PMS5003;43703;51.060;-0.086;2024-02-15T15:18:04;11;8;
57884;PMS5003;43703;51.060;-0.086;2024-02-15T15:20:29;13;13;
57884;PMS5003;43703;51.060;-0.086;2024-02-15T15:22:55;7;7;
57884;PMS5003;43703;51.060;-0.086;2024-02-15T15:25:21;5;4;
57884;PMS5003;43703;51.060;-0.086;2024-02-15T15:27:47;8;8;
57884;PMS5003;43703;51.060;-0.086;2024-02-15T15:30:13;8;7;
57884;PMS5003;43703;51.060;-0.086;2024-02-15T15:32:39;6;5;
57884;PMS5003;43703;51.060;-0.086;2024-02-15T15:35:04;6;6;
57884;PMS5003;43703;51.060;-0.086;2024-02-15T15:37:30;10;8;
57884;PMS5003;43703;51.060;-0.086;2024-02-15T15:39:56;7;7;
57884;PMS5003;43703;51.060;-0.086;2024-02-15T15:42:21;10;7;
57884;PMS5003;43703;51.060;-0.086;2024-02-15T15:44:47;6;5;
57884;PMS5003;43703;51.060;-0.086;2024-02-15T15:47:13;5;5;
57884;PMS5003;43703;51.060;-0.086;2024-02-15T15:49:39;6;5;
57884;PMS5003;43703;51.060;-0.086;2024-02-15T15:52:04;6;6;
57884;PMS5003;43703;51.060;-0.086;2024-02-15T15:54:31;7;7;
57884;PMS5003;43703;51.060;-0.086;2024-02-15T15:56:56;7;7;
57884;PMS5003;43703;51.060;-0.086;2024-02-15T15:59:22;5;5;
57884;PMS5003;43703;51.060;-0.086;2024-02-15T16:01:47;5;5;
57884;PMS5003;43703;51.060;-0.086;2024-02-15T16:04:13;6;6;
57884;PMS5003;43703;51.060;-0.086;2024-02-15T16:06:40;8;7;
57884;PMS5003;43703;51.060;-0.086;2024-02-15T16:09:05;6;6;
57884;PMS5003;43703;51.060;-0.086;2024-02-15T16:11:31;7;6;
57884;PMS5003;43703;51.060;-0.086;2024-02-15T16:13:56;10;7;
57884;PMS5003;43703;51.060;-0.086;2024-02-15T16:16:22;6;6;
57884;PMS5003;43703;51.060;-0.086;2024-02-15T16:18:48;7;7;
57884;PMS5003;43703;51.060;-0.086;2024-02-15T16:21:14;9;7;
57884;PMS5003;43703;51.060;-0.086;2024-02-15T16:23:43;8;8;
57884;PMS5003;43703;51.060;-0.086;2024-02-15T16:26:05;11;8;
57884;PMS5003;43703;51.060;-0.086;2024-02-15T16:28:31;6;6;
57884;PMS5003;43703;51.060;-0.086;2024-02-15T16:30:57;5;5;
57884;PMS5003;43703;51.060;-0.086;2024-02-15T16:33:23;6;6;